sensor_id;sensor_type;location;lat;lon;timestamp;temperature;humidity
15888;DHT22;56032;51.324;12.376;2022-12-20T00:03:42;4.80;99.90
15888;DHT22;56032;51.324;12.376;2022-12-20T00:06:30;4.80;99.90
15888;DHT22;56032;51.324;12.376;2022-12-20T00:09:14;4.80;99.90
15888;DHT22;56032;51.324;12.376;2022-12-20T00:12:16;4.80;99.90
15888;DHT22;56032;51.324;12.376;2022-12-20T00:17:55;4.90;99.90
15888;DHT22;56032;51.324;12.376;2022-12-20T00:20:42;4.90;99.90
15888;DHT22;56032;51.324;12.376;2022-12-20T00:23:18;5.00;99.90
15888;DHT22;56032;51.324;12.376;2022-12-20T00:26:23;5.00;99.90
15888;DHT22;56032;51.324;12.376;2022-12-20T00:28:57;5.00;99.90
15888;DHT22;56032;51.324;12.376;2022-12-20T00:31:43;5.00;99.90
15888;DHT22;56032;51.324;12.376;2022-12-20T00:37:16;5.00;99.90
15888;DHT22;56032;51.324;12.376;2022-12-20T00:40:02;5.00;99.90
15888;DHT22;56032;51.324;12.376;2022-12-20T00:42:39;5.00;99.90
15888;DHT22;56032;51.324;12.376;2022-12-20T00:45:19;4.90;99.90
15888;DHT22;56032;51.324;12.376;2022-12-20T00:48:08;4.90;99.90
15888;DHT22;56032;51.324;12.376;2022-12-20T00:50:46;4.90;99.90
15888;DHT22;56032;51.324;12.376;2022-12-20T00:53:44;4.90;99.90
15888;DHT22;56032;51.324;12.376;2022-12-20T00:56:28;4.90;99.90
15888;DHT22;56032;51.324;12.376;2022-12-20T00:59:05;4.90;99.90
15888;DHT22;56032;51.324;12.376;2022-12-20T01:02:07;4.90;99.90
15888;DHT22;56032;51.324;12.376;2022-12-20T01:04:42;4.90;99.90
15888;DHT22;56032;51.324;12.376;2022-12-20T01:07:24;4.90;99.90
15888;DHT22;56032;51.324;12.376;2022-12-20T01:10:02;4.90;99.90
15888;DHT22;56032;51.324;12.376;2022-12-20T01:12:40;4.90;99.90
15888;DHT22;56032;51.324;12.376;2022-12-20T01:15:17;4.90;99.90
15888;DHT22;56032;51.324;12.376;2022-12-20T01:17:58;4.90;99.90
15888;DHT22;56032;51.324;12.376;2022-12-20T01:20:43;5.00;99.90
15888;DHT22;56032;51.324;12.376;2022-12-20T01:23:29;5.00;99.90
15888;DHT22;56032;51.324;12.376;2022-12-20T01:26:23;5.00;99.90
15888;DHT22;56032;51.324;12.376;2022-12-20T01:29:05;5.00;99.90
15888;DHT22;56032;51.324;12.376;2022-12-20T01:31:57;4.90;99.90
15888;DHT22;56032;51.324;12.376;2022-12-20T01:34:55;4.90;99.90
15888;DHT22;56032;51.324;12.376;2022-12-20T01:37:34;4.90;99.90
15888;DHT22;56032;51.324;12.376;2022-12-20T01:40:18;4.90;99.90
15888;DHT22;56032;51.324;12.376;2022-12-20T01:46:25;5.00;99.90
15888;DHT22;56032;51.324;12.376;2022-12-20T01:49:04;5.00;99.90
15888;DHT22;56032;51.324;12.376;2022-12-20T01:51:52;5.00;99.90
15888;DHT22;56032;51.324;12.376;2022-12-20T01:54:36;5.20;99.90
15888;DHT22;56032;51.324;12.376;2022-12-20T01:57:10;5.10;99.90
15888;DHT22;56032;51.324;12.376;2022-12-20T01:59:45;5.10;99.90
15888;DHT22;56032;51.324;12.376;2022-12-20T02:02:27;5.10;99.90
15888;DHT22;56032;51.324;12.376;2022-12-20T02:05:00;5.10;99.90
15888;DHT22;56032;51.324;12.376;2022-12-20T02:07:42;5.10;99.90
15888;DHT22;56032;51.324;12.376;2022-12-20T02:10:34;5.10;99.90
15888;DHT22;56032;51.324;12.376;2022-12-20T02:13:30;5.10;99.90
15888;DHT22;56032;51.324;12.376;2022-12-20T02:16:35;5.20;99.90
15888;DHT22;56032;51.324;12.376;2022-12-20T02:19:35;5.20;99.90
15888;DHT22;56032;51.324;12.376;2022-12-20T02:22:32;5.30;99.90
15888;DHT22;56032;51.324;12.376;2022-12-20T02:25:28;5.30;99.90
15888;DHT22;56032;51.324;12.376;2022-12-20T02:28:13;5.30;99.90
15888;DHT22;56032;51.324;12.376;2022-12-20T02:30:57;5.30;99.90
15888;DHT22;56032;51.324;12.376;2022-12-20T02:33:46;5.30;99.90
15888;DHT22;56032;51.324;12.376;2022-12-20T02:36:35;5.30;99.90
15888;DHT22;56032;51.324;12.376;2022-12-20T02:39:23;5.40;99.90
15888;DHT22;56032;51.324;12.376;2022-12-20T02:41:56;5.40;99.90
15888;DHT22;56032;51.324;12.376;2022-12-20T02:44:48;5.30;99.90
15888;DHT22;56032;51.324;12.376;2022-12-20T02:47:39;5.30;99.90
15888;DHT22;56032;51.324;12.376;2022-12-20T02:50:29;5.30;99.90
15888;DHT22;56032;51.324;12.376;2022-12-20T02:53:35;5.30;99.90
15888;DHT22;56032;51.324;12.376;2022-12-20T02:56:34;5.20;99.90
15888;DHT22;56032;51.324;12.376;2022-12-20T02:59:10;5.20;99.90
15888;DHT22;56032;51.324;12.376;2022-12-20T03:01:46;5.20;99.90
15888;DHT22;56032;51.324;12.376;2022-12-20T03:04:35;5.10;99.90
15888;DHT22;56032;51.324;12.376;2022-12-20T03:07:19;5.10;99.90
15888;DHT22;56032;51.324;12.376;2022-12-20T03:10:00;5.10;99.90
15888;DHT22;56032;51.324;12.376;2022-12-20T03:12:35;5.10;99.90
15888;DHT22;56032;51.324;12.376;2022-12-20T03:15:21;5.10;99.90
15888;DHT22;56032;51.324;12.376;2022-12-20T03:18:13;5.10;99.90
15888;DHT22;56032;51.324;12.376;2022-12-20T03:24:01;5.00;99.90
15888;DHT22;56032;51.324;12.376;2022-12-20T03:26:32;5.00;99.90
15888;DHT22;56032;51.324;12.376;2022-12-20T03:29:06;5.00;99.90
15888;DHT22;56032;51.324;12.376;2022-12-20T03:32:23;5.00;99.90
15888;DHT22;56032;51.324;12.376;2022-12-20T03:35:07;5.00;99.90
15888;DHT22;56032;51.324;12.376;2022-12-20T03:37:48;5.00;99.90
15888;DHT22;56032;51.324;12.376;2022-12-20T03:43:32;4.90;99.90
15888;DHT22;56032;51.324;12.376;2022-12-20T03:46:10;4.90;99.90
15888;DHT22;56032;51.324;12.376;2022-12-20T03:49:02;4.90;99.90
15888;DHT22;56032;51.324;12.376;2022-12-20T03:51:38;4.90;99.90
15888;DHT22;56032;51.324;12.376;2022-12-20T03:54:13;4.90;99.90
15888;DHT22;56032;51.324;12.376;2022-12-20T03:56:58;5.30;99.90
15888;DHT22;56032;51.324;12.376;2022-12-20T03:59:54;4.90;99.90
15888;DHT22;56032;51.324;12.376;2022-12-20T04:02:52;4.90;99.90
15888;DHT22;56032;51.324;12.376;2022-12-20T04:05:45;4.90;99.90
15888;DHT22;56032;51.324;12.376;2022-12-20T04:08:34;4.90;99.90
15888;DHT22;56032;51.324;12.376;2022-12-20T04:11:19;4.90;99.90
15888;DHT22;56032;51.324;12.376;2022-12-20T04:14:04;4.90;99.90
15888;DHT22;56032;51.324;12.376;2022-12-20T04:16:45;4.90;99.90
15888;DHT22;56032;51.324;12.376;2022-12-20T04:19:23;4.90;99.90
15888;DHT22;56032;51.324;12.376;2022-12-20T04:21:59;4.90;99.90
15888;DHT22;56032;51.324;12.376;2022-12-20T04:24:55;4.90;99.90
15888;DHT22;56032;51.324;12.376;2022-12-20T04:27:29;5.00;99.90
15888;DHT22;56032;51.324;12.376;2022-12-20T04:30:13;5.00;99.90
15888;DHT22;56032;51.324;12.376;2022-12-20T04:33:08;5.00;99.90
15888;DHT22;56032;51.324;12.376;2022-12-20T04:35:40;5.10;99.90
15888;DHT22;56032;51.324;12.376;2022-12-20T04:38:30;5.10;99.90
15888;DHT22;56032;51.324;12.376;2022-12-20T04:41:13;5.10;99.90
15888;DHT22;56032;51.324;12.376;2022-12-20T04:43:49;5.10;99.90
15888;DHT22;56032;51.324;12.376;2022-12-20T04:46:22;5.20;99.90
15888;DHT22;56032;51.324;12.376;2022-12-20T04:54:52;5.20;99.90
15888;DHT22;56032;51.324;12.376;2022-12-20T04:57:31;5.30;99.90
15888;DHT22;56032;51.324;12.376;2022-12-20T05:00:34;5.30;99.90
15888;DHT22;56032;51.324;12.376;2022-12-20T05:03:24;5.30;99.90
15888;DHT22;56032;51.324;12.376;2022-12-20T05:06:00;5.40;99.90
15888;DHT22;56032;51.324;12.376;2022-12-20T05:09:02;5.40;99.90
15888;DHT22;56032;51.324;12.376;2022-12-20T05:14:36;5.50;99.90
15888;DHT22;56032;51.324;12.376;2022-12-20T05:17:09;5.60;99.90
15888;DHT22;56032;51.324;12.376;2022-12-20T05:22:55;5.70;99.90
15888;DHT22;56032;51.324;12.376;2022-12-20T05:25:52;5.70;99.90
15888;DHT22;56032;51.324;12.376;2022-12-20T05:29:00;5.70;99.90
15888;DHT22;56032;51.324;12.376;2022-12-20T05:31:44;5.70;99.90
15888;DHT22;56032;51.324;12.376;2022-12-20T05:34:29;5.70;99.90
15888;DHT22;56032;51.324;12.376;2022-12-20T05:37:12;5.70;99.90
15888;DHT22;56032;51.324;12.376;2022-12-20T05:40:15;5.80;99.90
15888;DHT22;56032;51.324;12.376;2022-12-20T05:42:56;5.80;99.90
15888;DHT22;56032;51.324;12.376;2022-12-20T05:45:29;5.80;99.90
15888;DHT22;56032;51.324;12.376;2022-12-20T05:48:17;5.80;99.90
15888;DHT22;56032;51.324;12.376;2022-12-20T05:50:53;5.80;99.90
15888;DHT22;56032;51.324;12.376;2022-12-20T05:53:40;5.80;99.90
15888;DHT22;56032;51.324;12.376;2022-12-20T05:56:34;5.80;99.90
15888;DHT22;56032;51.324;12.376;2022-12-20T05:59:27;5.80;99.90
15888;DHT22;56032;51.324;12.376;2022-12-20T06:02:08;5.80;99.90
15888;DHT22;56032;51.324;12.376;2022-12-20T06:05:04;5.80;99.90
15888;DHT22;56032;51.324;12.376;2022-12-20T06:07:37;5.80;99.90
15888;DHT22;56032;51.324;12.376;2022-12-20T06:10:41;5.80;99.90
15888;DHT22;56032;51.324;12.376;2022-12-20T06:13:40;5.80;99.90
15888;DHT22;56032;51.324;12.376;2022-12-20T06:16:26;5.80;99.90
15888;DHT22;56032;51.324;12.376;2022-12-20T06:19:08;5.90;99.90
15888;DHT22;56032;51.324;12.376;2022-12-20T06:22:01;5.90;99.90
15888;DHT22;56032;51.324;12.376;2022-12-20T06:24:50;5.80;99.90
15888;DHT22;56032;51.324;12.376;2022-12-20T06:27:32;5.90;99.90
15888;DHT22;56032;51.324;12.376;2022-12-20T06:33:07;5.90;99.90
15888;DHT22;56032;51.324;12.376;2022-12-20T06:35:49;6.00;99.90
15888;DHT22;56032;51.324;12.376;2022-12-20T06:38:30;6.00;99.90
15888;DHT22;56032;51.324;12.376;2022-12-20T06:41:19;6.00;99.90
15888;DHT22;56032;51.324;12.376;2022-12-20T06:43:54;6.00;99.90
15888;DHT22;56032;51.324;12.376;2022-12-20T06:46:35;6.10;99.90
15888;DHT22;56032;51.324;12.376;2022-12-20T06:49:25;6.00;99.90
15888;DHT22;56032;51.324;12.376;2022-12-20T06:52:23;6.00;99.90
15888;DHT22;56032;51.324;12.376;2022-12-20T06:58:14;6.00;99.90
15888;DHT22;56032;51.324;12.376;2022-12-20T07:00:54;6.00;99.90
15888;DHT22;56032;51.324;12.376;2022-12-20T07:03:39;6.10;99.90
15888;DHT22;56032;51.324;12.376;2022-12-20T07:06:11;6.10;99.90
15888;DHT22;56032;51.324;12.376;2022-12-20T07:09:07;6.00;99.90
15888;DHT22;56032;51.324;12.376;2022-12-20T07:12:06;6.00;99.90
15888;DHT22;56032;51.324;12.376;2022-12-20T07:18:01;6.00;99.90
15888;DHT22;56032;51.324;12.376;2022-12-20T07:20:33;6.10;99.90
15888;DHT22;56032;51.324;12.376;2022-12-20T07:23:20;6.10;99.90
15888;DHT22;56032;51.324;12.376;2022-12-20T07:25:53;6.20;99.90
15888;DHT22;56032;51.324;12.376;2022-12-20T07:28:33;6.20;99.90
15888;DHT22;56032;51.324;12.376;2022-12-20T07:31:32;6.20;99.90
15888;DHT22;56032;51.324;12.376;2022-12-20T07:37:13;6.10;99.90
15888;DHT22;56032;51.324;12.376;2022-12-20T07:40:04;6.10;99.90
15888;DHT22;56032;51.324;12.376;2022-12-20T07:42:55;6.00;99.90
15888;DHT22;56032;51.324;12.376;2022-12-20T07:45:34;6.00;99.90
15888;DHT22;56032;51.324;12.376;2022-12-20T07:48:17;6.00;99.90
15888;DHT22;56032;51.324;12.376;2022-12-20T07:51:05;5.90;99.90
15888;DHT22;56032;51.324;12.376;2022-12-20T07:54:01;5.90;99.90
15888;DHT22;56032;51.324;12.376;2022-12-20T07:57:07;5.90;99.90
15888;DHT22;56032;51.324;12.376;2022-12-20T07:59:52;6.00;99.90
15888;DHT22;56032;51.324;12.376;2022-12-20T08:02:33;5.90;99.90
15888;DHT22;56032;51.324;12.376;2022-12-20T08:05:24;5.90;99.90
15888;DHT22;56032;51.324;12.376;2022-12-20T08:08:06;6.50;99.90
15888;DHT22;56032;51.324;12.376;2022-12-20T08:17:00;5.90;99.90
15888;DHT22;56032;51.324;12.376;2022-12-20T08:19:33;5.90;99.90
15888;DHT22;56032;51.324;12.376;2022-12-20T08:22:09;5.90;99.90
15888;DHT22;56032;51.324;12.376;2022-12-20T08:24:44;5.80;99.90
15888;DHT22;56032;51.324;12.376;2022-12-20T08:27:20;5.80;99.90
15888;DHT22;56032;51.324;12.376;2022-12-20T08:30:07;5.90;99.90
15888;DHT22;56032;51.324;12.376;2022-12-20T08:36:14;5.90;99.90
15888;DHT22;56032;51.324;12.376;2022-12-20T08:39:01;5.90;99.90
15888;DHT22;56032;51.324;12.376;2022-12-20T08:41:43;5.90;99.90
15888;DHT22;56032;51.324;12.376;2022-12-20T08:44:32;5.90;99.90
15888;DHT22;56032;51.324;12.376;2022-12-20T08:47:34;6.00;99.90
15888;DHT22;56032;51.324;12.376;2022-12-20T08:50:16;6.00;99.90
15888;DHT22;56032;51.324;12.376;2022-12-20T08:53:03;6.00;99.90
15888;DHT22;56032;51.324;12.376;2022-12-20T08:55:39;6.00;99.90
15888;DHT22;56032;51.324;12.376;2022-12-20T08:58:47;6.10;99.90
15888;DHT22;56032;51.324;12.376;2022-12-20T09:01:26;6.10;99.90
15888;DHT22;56032;51.324;12.376;2022-12-20T09:04:16;6.10;99.90
15888;DHT22;56032;51.324;12.376;2022-12-20T09:07:07;6.10;99.90
15888;DHT22;56032;51.324;12.376;2022-12-20T09:09:55;6.10;99.90
15888;DHT22;56032;51.324;12.376;2022-12-20T09:12:38;6.20;99.90
15888;DHT22;56032;51.324;12.376;2022-12-20T09:15:07;6.10;99.90
15888;DHT22;56032;51.324;12.376;2022-12-20T09:17:41;6.10;99.90
15888;DHT22;56032;51.324;12.376;2022-12-20T09:20:31;6.10;99.90
15888;DHT22;56032;51.324;12.376;2022-12-20T09:23:10;6.10;99.90
15888;DHT22;56032;51.324;12.376;2022-12-20T09:26:09;6.10;99.90
15888;DHT22;56032;51.324;12.376;2022-12-20T09:28:45;6.20;99.90
15888;DHT22;56032;51.324;12.376;2022-12-20T09:31:41;6.10;99.90
15888;DHT22;56032;51.324;12.376;2022-12-20T09:34:29;6.10;99.90
15888;DHT22;56032;51.324;12.376;2022-12-20T09:37:49;6.20;99.90
15888;DHT22;56032;51.324;12.376;2022-12-20T09:43:29;6.20;99.90
15888;DHT22;56032;51.324;12.376;2022-12-20T09:46:02;6.30;99.90
15888;DHT22;56032;51.324;12.376;2022-12-20T09:51:34;6.40;99.90
15888;DHT22;56032;51.324;12.376;2022-12-20T09:54:17;6.40;99.90
15888;DHT22;56032;51.324;12.376;2022-12-20T09:56:56;6.50;99.90
15888;DHT22;56032;51.324;12.376;2022-12-20T09:59:33;6.60;99.90
15888;DHT22;56032;51.324;12.376;2022-12-20T10:02:19;6.60;99.90
15888;DHT22;56032;51.324;12.376;2022-12-20T10:05:19;6.70;99.90
15888;DHT22;56032;51.324;12.376;2022-12-20T10:08:10;6.70;99.90
15888;DHT22;56032;51.324;12.376;2022-12-20T10:10:58;6.80;99.90
15888;DHT22;56032;51.324;12.376;2022-12-20T10:13:36;7.00;99.90
15888;DHT22;56032;51.324;12.376;2022-12-20T10:19:17;6.90;99.90
15888;DHT22;56032;51.324;12.376;2022-12-20T10:22:01;6.90;99.90
15888;DHT22;56032;51.324;12.376;2022-12-20T10:24:40;6.90;99.90
15888;DHT22;56032;51.324;12.376;2022-12-20T10:27:30;7.00;99.90
15888;DHT22;56032;51.324;12.376;2022-12-20T10:30:10;7.00;99.90
15888;DHT22;56032;51.324;12.376;2022-12-20T10:32:44;7.00;99.90
15888;DHT22;56032;51.324;12.376;2022-12-20T10:35:27;7.00;99.90
15888;DHT22;56032;51.324;12.376;2022-12-20T10:38:42;7.00;99.90
15888;DHT22;56032;51.324;12.376;2022-12-20T10:41:13;7.00;99.90
15888;DHT22;56032;51.324;12.376;2022-12-20T10:43:51;7.00;99.90
15888;DHT22;56032;51.324;12.376;2022-12-20T10:46:37;7.00;99.90
15888;DHT22;56032;51.324;12.376;2022-12-20T10:49:25;7.00;99.90
15888;DHT22;56032;51.324;12.376;2022-12-20T10:52:11;7.10;99.90
15888;DHT22;56032;51.324;12.376;2022-12-20T10:54:43;7.20;99.90
15888;DHT22;56032;51.324;12.376;2022-12-20T10:57:20;7.20;99.90
15888;DHT22;56032;51.324;12.376;2022-12-20T11:00:06;7.30;99.90
15888;DHT22;56032;51.324;12.376;2022-12-20T11:03:00;7.30;99.90
15888;DHT22;56032;51.324;12.376;2022-12-20T11:05:38;7.30;99.90
15888;DHT22;56032;51.324;12.376;2022-12-20T11:08:30;7.30;99.90
15888;DHT22;56032;51.324;12.376;2022-12-20T11:11:26;7.30;99.90
15888;DHT22;56032;51.324;12.376;2022-12-20T11:14:12;7.40;99.90
15888;DHT22;56032;51.324;12.376;2022-12-20T11:16:51;7.40;99.90
15888;DHT22;56032;51.324;12.376;2022-12-20T11:19:57;7.40;99.90
15888;DHT22;56032;51.324;12.376;2022-12-20T11:22:35;7.40;99.90
15888;DHT22;56032;51.324;12.376;2022-12-20T11:25:38;7.40;99.90
15888;DHT22;56032;51.324;12.376;2022-12-20T11:28:35;7.40;99.90
15888;DHT22;56032;51.324;12.376;2022-12-20T11:31:19;7.40;99.90
15888;DHT22;56032;51.324;12.376;2022-12-20T11:37:03;7.30;99.90
15888;DHT22;56032;51.324;12.376;2022-12-20T11:39:59;7.30;99.90
15888;DHT22;56032;51.324;12.376;2022-12-20T11:42:41;7.40;99.90
15888;DHT22;56032;51.324;12.376;2022-12-20T11:45:24;7.40;99.90
15888;DHT22;56032;51.324;12.376;2022-12-20T11:48:09;7.40;99.90
15888;DHT22;56032;51.324;12.376;2022-12-20T11:51:18;7.30;99.90
15888;DHT22;56032;51.324;12.376;2022-12-20T11:54:04;7.30;99.90
15888;DHT22;56032;51.324;12.376;2022-12-20T11:56:56;7.30;99.90
15888;DHT22;56032;51.324;12.376;2022-12-20T11:59:36;7.30;99.90
15888;DHT22;56032;51.324;12.376;2022-12-20T12:02:22;7.30;99.90
15888;DHT22;56032;51.324;12.376;2022-12-20T12:05:14;7.20;99.90
15888;DHT22;56032;51.324;12.376;2022-12-20T12:07:52;7.30;99.90
15888;DHT22;56032;51.324;12.376;2022-12-20T12:10:43;7.30;99.90
15888;DHT22;56032;51.324;12.376;2022-12-20T12:16:33;7.40;99.90
15888;DHT22;56032;51.324;12.376;2022-12-20T12:19:17;7.40;99.90
15888;DHT22;56032;51.324;12.376;2022-12-20T12:22:04;7.40;99.90
15888;DHT22;56032;51.324;12.376;2022-12-20T12:24:44;7.40;99.90
15888;DHT22;56032;51.324;12.376;2022-12-20T12:27:29;7.50;99.90
15888;DHT22;56032;51.324;12.376;2022-12-20T12:30:05;7.50;99.90
15888;DHT22;56032;51.324;12.376;2022-12-20T12:32:54;7.50;99.90
15888;DHT22;56032;51.324;12.376;2022-12-20T12:36:00;7.50;99.90
15888;DHT22;56032;51.324;12.376;2022-12-20T12:39:03;7.60;99.90
15888;DHT22;56032;51.324;12.376;2022-12-20T12:41:54;7.60;99.90
15888;DHT22;56032;51.324;12.376;2022-12-20T12:44:31;7.60;99.90
15888;DHT22;56032;51.324;12.376;2022-12-20T12:47:13;7.60;99.90
15888;DHT22;56032;51.324;12.376;2022-12-20T12:50:02;7.60;99.90
15888;DHT22;56032;51.324;12.376;2022-12-20T12:52:57;7.60;99.90
15888;DHT22;56032;51.324;12.376;2022-12-20T12:55:40;7.60;99.90
15888;DHT22;56032;51.324;12.376;2022-12-20T13:01:25;7.50;99.90
15888;DHT22;56032;51.324;12.376;2022-12-20T13:04:09;7.50;99.90
15888;DHT22;56032;51.324;12.376;2022-12-20T13:07:01;7.50;99.90
15888;DHT22;56032;51.324;12.376;2022-12-20T13:09:52;7.50;99.90
15888;DHT22;56032;51.324;12.376;2022-12-20T13:18:38;7.50;99.90
15888;DHT22;56032;51.324;12.376;2022-12-20T13:21:39;7.50;99.90
15888;DHT22;56032;51.324;12.376;2022-12-20T13:36:00;7.50;99.90
15888;DHT22;56032;51.324;12.376;2022-12-20T13:41:37;7.40;99.90
15888;DHT22;56032;51.324;12.376;2022-12-20T13:59:21;7.30;99.90
15888;DHT22;56032;51.324;12.376;2022-12-20T14:04:57;7.20;99.90
15888;DHT22;56032;51.324;12.376;2022-12-20T14:07:33;7.20;99.90
15888;DHT22;56032;51.324;12.376;2022-12-20T14:10:32;7.20;99.90
15888;DHT22;56032;51.324;12.376;2022-12-20T14:19:04;7.20;99.90
15888;DHT22;56032;51.324;12.376;2022-12-20T14:21:36;7.20;99.90
15888;DHT22;56032;51.324;12.376;2022-12-20T14:24:21;7.10;99.90
15888;DHT22;56032;51.324;12.376;2022-12-20T14:26:59;7.10;99.90
15888;DHT22;56032;51.324;12.376;2022-12-20T14:29:40;7.00;99.90
15888;DHT22;56032;51.324;12.376;2022-12-20T14:32:44;7.00;99.90
15888;DHT22;56032;51.324;12.376;2022-12-20T14:35:22;7.10;99.90
15888;DHT22;56032;51.324;12.376;2022-12-20T14:40:50;7.10;99.90
15888;DHT22;56032;51.324;12.376;2022-12-20T14:43:32;7.00;99.90
15888;DHT22;56032;51.324;12.376;2022-12-20T14:46:23;7.00;99.90
15888;DHT22;56032;51.324;12.376;2022-12-20T14:49:16;7.00;99.90
15888;DHT22;56032;51.324;12.376;2022-12-20T14:52:03;7.00;99.90
15888;DHT22;56032;51.324;12.376;2022-12-20T14:54:41;7.00;99.90
15888;DHT22;56032;51.324;12.376;2022-12-20T15:00:57;7.00;99.90
15888;DHT22;56032;51.324;12.376;2022-12-20T15:03:58;7.00;99.90
15888;DHT22;56032;51.324;12.376;2022-12-20T15:06:38;7.00;99.90
15888;DHT22;56032;51.324;12.376;2022-12-20T15:09:38;6.90;99.90
15888;DHT22;56032;51.324;12.376;2022-12-20T15:12:11;6.90;99.90
15888;DHT22;56032;51.324;12.376;2022-12-20T15:14:42;6.80;99.90
15888;DHT22;56032;51.324;12.376;2022-12-20T15:17:11;6.80;99.90
15888;DHT22;56032;51.324;12.376;2022-12-20T15:19:40;6.80;99.90
15888;DHT22;56032;51.324;12.376;2022-12-20T15:22:10;6.70;99.90
15888;DHT22;56032;51.324;12.376;2022-12-20T15:24:41;6.90;99.90
15888;DHT22;56032;51.324;12.376;2022-12-20T15:27:11;6.70;99.90
15888;DHT22;56032;51.324;12.376;2022-12-20T15:29:40;6.70;99.90
15888;DHT22;56032;51.324;12.376;2022-12-20T15:32:13;6.80;99.90
15888;DHT22;56032;51.324;12.376;2022-12-20T15:34:42;6.80;99.90
15888;DHT22;56032;51.324;12.376;2022-12-20T15:37:12;6.80;99.90
15888;DHT22;56032;51.324;12.376;2022-12-20T15:39:45;6.80;99.90
15888;DHT22;56032;51.324;12.376;2022-12-20T15:42:14;6.80;99.90
15888;DHT22;56032;51.324;12.376;2022-12-20T15:44:44;6.80;99.90
15888;DHT22;56032;51.324;12.376;2022-12-20T15:47:12;6.80;99.90
15888;DHT22;56032;51.324;12.376;2022-12-20T15:49:44;6.90;99.90
15888;DHT22;56032;51.324;12.376;2022-12-20T15:52:18;6.80;99.90
15888;DHT22;56032;51.324;12.376;2022-12-20T15:54:48;6.80;99.90
15888;DHT22;56032;51.324;12.376;2022-12-20T15:57:17;6.90;99.90
15888;DHT22;56032;51.324;12.376;2022-12-20T15:59:46;6.80;99.90
15888;DHT22;56032;51.324;12.376;2022-12-20T16:02:27;6.80;99.90
15888;DHT22;56032;51.324;12.376;2022-12-20T16:04:57;6.80;99.90
15888;DHT22;56032;51.324;12.376;2022-12-20T16:07:26;6.80;99.90
15888;DHT22;56032;51.324;12.376;2022-12-20T16:09:55;6.80;99.90
15888;DHT22;56032;51.324;12.376;2022-12-20T16:12:24;6.80;99.90
15888;DHT22;56032;51.324;12.376;2022-12-20T16:14:53;6.80;99.90
15888;DHT22;56032;51.324;12.376;2022-12-20T16:17:22;6.80;99.90
15888;DHT22;56032;51.324;12.376;2022-12-20T16:19:51;6.80;99.90
15888;DHT22;56032;51.324;12.376;2022-12-20T16:22:21;6.80;99.90
15888;DHT22;56032;51.324;12.376;2022-12-20T16:24:50;6.80;99.90
15888;DHT22;56032;51.324;12.376;2022-12-20T16:27:20;6.90;99.90
15888;DHT22;56032;51.324;12.376;2022-12-20T16:29:57;6.90;99.90
15888;DHT22;56032;51.324;12.376;2022-12-20T16:32:27;6.80;99.90
15888;DHT22;56032;51.324;12.376;2022-12-20T16:34:55;6.90;99.90
15888;DHT22;56032;51.324;12.376;2022-12-20T16:37:24;6.80;99.90
15888;DHT22;56032;51.324;12.376;2022-12-20T16:39:52;6.80;99.90
15888;DHT22;56032;51.324;12.376;2022-12-20T16:42:22;6.80;99.90
15888;DHT22;56032;51.324;12.376;2022-12-20T16:44:50;6.80;99.90
15888;DHT22;56032;51.324;12.376;2022-12-20T16:47:19;6.70;99.90
15888;DHT22;56032;51.324;12.376;2022-12-20T16:49:48;6.80;99.90
15888;DHT22;56032;51.324;12.376;2022-12-20T16:52:20;6.80;99.90
15888;DHT22;56032;51.324;12.376;2022-12-20T16:54:49;6.80;99.90
15888;DHT22;56032;51.324;12.376;2022-12-20T16:57:17;6.80;99.90
15888;DHT22;56032;51.324;12.376;2022-12-20T16:59:51;6.80;99.90
15888;DHT22;56032;51.324;12.376;2022-12-20T17:02:23;6.80;99.90
15888;DHT22;56032;51.324;12.376;2022-12-20T17:05:03;6.80;99.90
15888;DHT22;56032;51.324;12.376;2022-12-20T17:07:51;6.90;99.90
15888;DHT22;56032;51.324;12.376;2022-12-20T17:10:23;6.90;99.90
15888;DHT22;56032;51.324;12.376;2022-12-20T17:13:01;6.80;99.90
15888;DHT22;56032;51.324;12.376;2022-12-20T17:15:36;6.80;99.90
15888;DHT22;56032;51.324;12.376;2022-12-20T17:18:22;6.90;99.90
15888;DHT22;56032;51.324;12.376;2022-12-20T17:21:16;6.90;99.90
15888;DHT22;56032;51.324;12.376;2022-12-20T17:23:49;7.00;99.90
15888;DHT22;56032;51.324;12.376;2022-12-20T17:26:25;6.80;99.90
15888;DHT22;56032;51.324;12.376;2022-12-20T17:29:10;6.90;99.90
15888;DHT22;56032;51.324;12.376;2022-12-20T17:32:09;6.90;99.90
15888;DHT22;56032;51.324;12.376;2022-12-20T17:40:36;6.90;99.90
15888;DHT22;56032;51.324;12.376;2022-12-20T17:43:13;7.00;99.90
15888;DHT22;56032;51.324;12.376;2022-12-20T17:45:43;6.90;99.90
15888;DHT22;56032;51.324;12.376;2022-12-20T17:48:29;7.00;99.90
15888;DHT22;56032;51.324;12.376;2022-12-20T17:51:14;7.00;99.90
15888;DHT22;56032;51.324;12.376;2022-12-20T17:54:08;7.00;99.90
15888;DHT22;56032;51.324;12.376;2022-12-20T17:57:10;7.00;99.90
15888;DHT22;56032;51.324;12.376;2022-12-20T18:00:15;7.00;99.90
15888;DHT22;56032;51.324;12.376;2022-12-20T18:02:47;7.00;99.90
15888;DHT22;56032;51.324;12.376;2022-12-20T18:06:03;7.00;99.90
15888;DHT22;56032;51.324;12.376;2022-12-20T18:08:51;7.00;99.90
15888;DHT22;56032;51.324;12.376;2022-12-20T18:11:32;6.80;99.90
15888;DHT22;56032;51.324;12.376;2022-12-20T18:14:02;7.00;99.90
15888;DHT22;56032;51.324;12.376;2022-12-20T18:16:45;7.00;99.90
15888;DHT22;56032;51.324;12.376;2022-12-20T18:19:16;7.00;99.90
15888;DHT22;56032;51.324;12.376;2022-12-20T18:22:06;7.00;99.90
15888;DHT22;56032;51.324;12.376;2022-12-20T18:24:40;7.00;99.90
15888;DHT22;56032;51.324;12.376;2022-12-20T18:27:28;6.90;99.90
15888;DHT22;56032;51.324;12.376;2022-12-20T18:30:01;7.00;99.90
15888;DHT22;56032;51.324;12.376;2022-12-20T18:32:38;7.00;99.90
15888;DHT22;56032;51.324;12.376;2022-12-20T18:35:27;7.00;99.90
15888;DHT22;56032;51.324;12.376;2022-12-20T18:38:29;7.00;99.90
15888;DHT22;56032;51.324;12.376;2022-12-20T18:41:09;7.00;99.90
15888;DHT22;56032;51.324;12.376;2022-12-20T18:44:02;7.00;99.90
15888;DHT22;56032;51.324;12.376;2022-12-20T18:46:38;7.00;99.90
15888;DHT22;56032;51.324;12.376;2022-12-20T18:49:07;7.10;99.90
15888;DHT22;56032;51.324;12.376;2022-12-20T18:51:40;7.10;99.90
15888;DHT22;56032;51.324;12.376;2022-12-20T18:54:23;7.10;99.90
15888;DHT22;56032;51.324;12.376;2022-12-20T18:57:00;7.10;99.90
15888;DHT22;56032;51.324;12.376;2022-12-20T18:59:48;7.10;99.90
15888;DHT22;56032;51.324;12.376;2022-12-20T19:02:26;7.10;99.90
15888;DHT22;56032;51.324;12.376;2022-12-20T19:05:01;7.10;99.90
15888;DHT22;56032;51.324;12.376;2022-12-20T19:07:43;7.10;99.90
15888;DHT22;56032;51.324;12.376;2022-12-20T19:13:10;7.10;99.90
15888;DHT22;56032;51.324;12.376;2022-12-20T19:15:47;7.00;99.90
15888;DHT22;56032;51.324;12.376;2022-12-20T19:18:20;7.00;99.90
15888;DHT22;56032;51.324;12.376;2022-12-20T19:21:07;7.00;99.90